sensor_id;sensor_type;location;lat;lon;timestamp;pressure;altitude;pressure_sealevel;temperature;humidity
65659;BME280;60181;53.258;6.932;2023-01-28T00:01:18;103172.42;;;14.08;63.00
65659;BME280;60181;53.258;6.932;2023-01-28T00:05:22;103172.24;;;14.10;62.90
65659;BME280;60181;53.258;6.932;2023-01-28T00:09:26;103171.86;;;14.10;62.88
65659;BME280;60181;53.258;6.932;2023-01-28T00:13:30;103171.80;;;14.10;62.90
65659;BME280;60181;53.258;6.932;2023-01-28T00:17:34;103168.91;;;14.10;62.94
65659;BME280;60181;53.258;6.932;2023-01-28T00:21:38;103166.22;;;14.09;63.30
65659;BME280;60181;53.258;6.932;2023-01-28T00:25:42;103164.23;;;14.09;63.15
65659;BME280;60181;53.258;6.932;2023-01-28T00:29:46;103162.44;;;14.08;63.18
65659;BME280;60181;53.258;6.932;2023-01-28T00:33:50;103160.68;;;14.05;63.14
65659;BME280;60181;53.258;6.932;2023-01-28T00:37:54;103157.10;;;14.03;63.19
65659;BME280;60181;53.258;6.932;2023-01-28T00:41:58;103154.13;;;14.02;63.15
65659;BME280;60181;53.258;6.932;2023-01-28T00:46:05;103152.40;;;14.00;63.22
65659;BME280;60181;53.258;6.932;2023-01-28T00:50:06;103151.81;;;13.98;64.51
65659;BME280;60181;53.258;6.932;2023-01-28T00:54:11;103151.66;;;13.97;64.71
65659;BME280;60181;53.258;6.932;2023-01-28T00:58:14;103152.34;;;13.95;63.55
65659;BME280;60181;53.258;6.932;2023-01-28T01:02:18;103151.38;;;13.95;64.18
65659;BME280;60181;53.258;6.932;2023-01-28T01:06:23;103150.34;;;13.94;64.51
65659;BME280;60181;53.258;6.932;2023-01-28T01:10:26;103150.12;;;13.93;63.97
65659;BME280;60181;53.258;6.932;2023-01-28T01:14:30;103149.99;;;13.92;65.54
65659;BME280;60181;53.258;6.932;2023-01-28T01:18:34;103150.63;;;13.91;65.39
65659;BME280;60181;53.258;6.932;2023-01-28T01:22:38;103149.84;;;13.90;64.75
65659;BME280;60181;53.258;6.932;2023-01-28T01:26:42;103151.23;;;13.90;64.93
65659;BME280;60181;53.258;6.932;2023-01-28T01:30:46;103151.90;;;13.90;63.87
65659;BME280;60181;53.258;6.932;2023-01-28T01:34:50;103153.44;;;13.91;63.90
65659;BME280;60181;53.258;6.932;2023-01-28T01:38:54;103155.09;;;13.92;64.04
65659;BME280;60181;53.258;6.932;2023-01-28T01:42:58;103156.58;;;13.92;64.16
65659;BME280;60181;53.258;6.932;2023-01-28T01:47:02;103159.17;;;13.92;64.11
65659;BME280;60181;53.258;6.932;2023-01-28T01:51:06;103159.22;;;13.92;64.15
65659;BME280;60181;53.258;6.932;2023-01-28T01:55:11;103159.79;;;13.92;64.25
65659;BME280;60181;53.258;6.932;2023-01-28T01:59:14;103158.87;;;13.91;64.48
65659;BME280;60181;53.258;6.932;2023-01-28T02:03:18;103157.86;;;13.89;64.91
65659;BME280;60181;53.258;6.932;2023-01-28T02:07:22;103158.45;;;13.87;66.87
65659;BME280;60181;53.258;6.932;2023-01-28T02:11:27;103160.69;;;13.85;66.04
65659;BME280;60181;53.258;6.932;2023-01-28T02:15:30;103161.51;;;13.83;64.75
65659;BME280;60181;53.258;6.932;2023-01-28T02:19:38;103161.90;;;13.82;64.37
65659;BME280;60181;53.258;6.932;2023-01-28T02:27:52;103162.68;;;13.79;65.09
65659;BME280;60181;53.258;6.932;2023-01-28T02:32:01;103162.79;;;13.78;64.74
65659;BME280;60181;53.258;6.932;2023-01-28T02:35:53;103163.40;;;13.77;65.51
65659;BME280;60181;53.258;6.932;2023-01-28T02:39:56;103162.35;;;13.76;64.95
65659;BME280;60181;53.258;6.932;2023-01-28T02:44:00;103161.02;;;13.75;64.24
65659;BME280;60181;53.258;6.932;2023-01-28T02:48:02;103158.84;;;13.75;64.26
65659;BME280;60181;53.258;6.932;2023-01-28T02:52:14;103157.21;;;13.74;64.29
65659;BME280;60181;53.258;6.932;2023-01-28T03:00:17;103153.58;;;13.73;64.48
65659;BME280;60181;53.258;6.932;2023-01-28T03:04:20;103151.62;;;13.72;64.56
65659;BME280;60181;53.258;6.932;2023-01-28T03:08:22;103149.77;;;13.71;64.74
65659;BME280;60181;53.258;6.932;2023-01-28T03:12:26;103147.99;;;13.70;64.88
65659;BME280;60181;53.258;6.932;2023-01-28T03:16:30;103146.98;;;13.70;65.04
65659;BME280;60181;53.258;6.932;2023-01-28T03:20:36;103145.52;;;13.70;64.96
65659;BME280;60181;53.258;6.932;2023-01-28T03:24:41;103143.76;;;13.71;65.08
65659;BME280;60181;53.258;6.932;2023-01-28T03:28:42;103141.35;;;13.72;65.03
65659;BME280;60181;53.258;6.932;2023-01-28T03:32:46;103138.43;;;13.73;65.28
65659;BME280;60181;53.258;6.932;2023-01-28T03:36:50;103136.61;;;13.73;65.27
65659;BME280;60181;53.258;6.932;2023-01-28T03:40:55;103137.51;;;13.73;65.47
65659;BME280;60181;53.258;6.932;2023-01-28T03:44:58;103139.75;;;13.73;65.52
65659;BME280;60181;53.258;6.932;2023-01-28T03:49:02;103142.54;;;13.73;65.46
65659;BME280;60181;53.258;6.932;2023-01-28T03:53:06;103146.25;;;13.73;65.80
65659;BME280;60181;53.258;6.932;2023-01-28T03:57:10;103147.92;;;13.72;65.78
65659;BME280;60181;53.258;6.932;2023-01-28T04:01:14;103148.62;;;13.72;65.85
65659;BME280;60181;53.258;6.932;2023-01-28T04:05:18;103151.40;;;13.71;65.92
65659;BME280;60181;53.258;6.932;2023-01-28T04:09:22;103154.21;;;13.71;65.80
65659;BME280;60181;53.258;6.932;2023-01-28T04:13:26;103157.35;;;13.71;65.80
65659;BME280;60181;53.258;6.932;2023-01-28T04:17:30;103158.69;;;13.70;65.93
65659;BME280;60181;53.258;6.932;2023-01-28T04:21:34;103158.47;;;13.69;65.77
65659;BME280;60181;53.258;6.932;2023-01-28T04:25:38;103157.37;;;13.69;65.82
65659;BME280;60181;53.258;6.932;2023-01-28T04:29:42;103154.20;;;13.67;65.79
65659;BME280;60181;53.258;6.932;2023-01-28T04:33:46;103150.18;;;13.66;65.87
65659;BME280;60181;53.258;6.932;2023-01-28T04:37:50;103145.85;;;13.65;65.71
65659;BME280;60181;53.258;6.932;2023-01-28T04:41:54;103140.98;;;13.65;65.70
65659;BME280;60181;53.258;6.932;2023-01-28T04:45:58;103138.62;;;13.65;65.87
65659;BME280;60181;53.258;6.932;2023-01-28T04:50:02;103138.73;;;13.64;66.09
65659;BME280;60181;53.258;6.932;2023-01-28T04:54:06;103137.35;;;13.62;66.14
65659;BME280;60181;53.258;6.932;2023-01-28T04:58:10;103137.74;;;13.60;66.12
65659;BME280;60181;53.258;6.932;2023-01-28T05:02:14;103137.19;;;13.59;66.04
65659;BME280;60181;53.258;6.932;2023-01-28T05:06:18;103134.89;;;13.58;66.11
65659;BME280;60181;53.258;6.932;2023-01-28T05:10:22;103130.82;;;13.56;66.72
65659;BME280;60181;53.258;6.932;2023-01-28T05:14:26;103127.72;;;13.54;66.40
65659;BME280;60181;53.258;6.932;2023-01-28T05:18:30;103125.28;;;13.54;66.10
65659;BME280;60181;53.258;6.932;2023-01-28T05:22:34;103122.68;;;13.53;65.95
65659;BME280;60181;53.258;6.932;2023-01-28T05:26:38;103122.03;;;13.51;66.66
65659;BME280;60181;53.258;6.932;2023-01-28T05:30:42;103122.03;;;13.51;65.99
65659;BME280;60181;53.258;6.932;2023-01-28T05:34:46;103119.75;;;13.50;65.83
65659;BME280;60181;53.258;6.932;2023-01-28T05:38:50;103117.55;;;13.49;65.80
65659;BME280;60181;53.258;6.932;2023-01-28T05:42:54;103113.88;;;13.48;65.75
65659;BME280;60181;53.258;6.932;2023-01-28T05:46:58;103110.03;;;13.47;65.67
65659;BME280;60181;53.258;6.932;2023-01-28T05:51:02;103108.50;;;13.46;65.64
65659;BME280;60181;53.258;6.932;2023-01-28T05:55:06;103109.42;;;13.45;65.58
65659;BME280;60181;53.258;6.932;2023-01-28T05:59:10;103109.99;;;13.44;65.47
65659;BME280;60181;53.258;6.932;2023-01-28T06:03:14;103111.72;;;13.44;65.29
65659;BME280;60181;53.258;6.932;2023-01-28T06:07:18;103111.61;;;13.46;65.22
65659;BME280;60181;53.258;6.932;2023-01-28T06:11:22;103112.19;;;13.46;65.25
65659;BME280;60181;53.258;6.932;2023-01-28T06:15:26;103114.26;;;13.46;65.22
65659;BME280;60181;53.258;6.932;2023-01-28T06:19:30;103116.39;;;13.46;65.09
65659;BME280;60181;53.258;6.932;2023-01-28T06:23:34;103119.42;;;13.45;65.56
65659;BME280;60181;53.258;6.932;2023-01-28T06:27:38;103121.55;;;13.43;65.75
65659;BME280;60181;53.258;6.932;2023-01-28T06:31:42;103123.21;;;13.42;64.82
65659;BME280;60181;53.258;6.932;2023-01-28T06:35:46;103125.20;;;13.37;64.24
65659;BME280;60181;53.258;6.932;2023-01-28T06:39:50;103127.28;;;13.31;64.71
65659;BME280;60181;53.258;6.932;2023-01-28T06:43:54;103130.35;;;13.25;64.45
65659;BME280;60181;53.258;6.932;2023-01-28T06:47:58;103129.32;;;13.20;64.69
65659;BME280;60181;53.258;6.932;2023-01-28T06:52:02;103129.14;;;13.17;64.49
65659;BME280;60181;53.258;6.932;2023-01-28T06:56:06;103130.76;;;13.13;64.23
65659;BME280;60181;53.258;6.932;2023-01-28T07:00:10;103133.11;;;13.11;64.30
65659;BME280;60181;53.258;6.932;2023-01-28T07:04:14;103136.36;;;13.09;64.29
65659;BME280;60181;53.258;6.932;2023-01-28T07:08:18;103139.21;;;13.06;64.18
65659;BME280;60181;53.258;6.932;2023-01-28T07:12:22;103142.02;;;13.05;64.05
65659;BME280;60181;53.258;6.932;2023-01-28T07:16:25;103145.32;;;13.04;64.04
65659;BME280;60181;53.258;6.932;2023-01-28T07:20:29;103146.20;;;13.02;64.21
65659;BME280;60181;53.258;6.932;2023-01-28T07:24:33;103148.90;;;13.02;63.96
65659;BME280;60181;53.258;6.932;2023-01-28T07:28:38;103150.04;;;13.00;64.01
65659;BME280;60181;53.258;6.932;2023-01-28T07:32:42;103149.23;;;12.99;63.95
65659;BME280;60181;53.258;6.932;2023-01-28T07:36:45;103146.53;;;12.98;64.04
65659;BME280;60181;53.258;6.932;2023-01-28T07:40:49;103146.36;;;12.97;64.02
65659;BME280;60181;53.258;6.932;2023-01-28T07:44:53;103146.64;;;12.97;64.21
65659;BME280;60181;53.258;6.932;2023-01-28T07:48:57;103148.36;;;12.97;63.88
65659;BME280;60181;53.258;6.932;2023-01-28T07:53:05;103148.77;;;12.96;64.08
65659;BME280;60181;53.258;6.932;2023-01-28T07:57:08;103149.67;;;12.96;64.02
65659;BME280;60181;53.258;6.932;2023-01-28T08:01:09;103152.88;;;12.96;63.65
65659;BME280;60181;53.258;6.932;2023-01-28T08:05:17;103156.52;;;12.97;63.76
65659;BME280;60181;53.258;6.932;2023-01-28T08:09:17;103160.10;;;12.97;63.71
65659;BME280;60181;53.258;6.932;2023-01-28T08:13:21;103163.40;;;13.07;62.53
65659;BME280;60181;53.258;6.932;2023-01-28T08:17:26;103169.54;;;13.21;62.53
65659;BME280;60181;53.258;6.932;2023-01-28T08:21:29;103177.86;;;13.29;63.01
65659;BME280;60181;53.258;6.932;2023-01-28T08:25:34;103184.31;;;13.33;63.15
65659;BME280;60181;53.258;6.932;2023-01-28T08:29:37;103190.44;;;13.35;63.29
65659;BME280;60181;53.258;6.932;2023-01-28T08:33:41;103195.97;;;13.36;63.27
65659;BME280;60181;53.258;6.932;2023-01-28T08:37:45;103202.61;;;13.39;63.17
65659;BME280;60181;53.258;6.932;2023-01-28T08:41:49;103208.48;;;13.43;63.06
65659;BME280;60181;53.258;6.932;2023-01-28T08:45:53;103215.66;;;13.47;63.03
65659;BME280;60181;53.258;6.932;2023-01-28T08:49:57;103221.04;;;13.49;63.05
65659;BME280;60181;53.258;6.932;2023-01-28T08:54:02;103226.12;;;13.70;60.25
65659;BME280;60181;53.258;6.932;2023-01-28T08:58:06;103231.31;;;13.98;60.39
65659;BME280;60181;53.258;6.932;2023-01-28T09:02:11;103235.19;;;14.06;62.04
65659;BME280;60181;53.258;6.932;2023-01-28T09:06:13;103235.90;;;14.04;62.78
65659;BME280;60181;53.258;6.932;2023-01-28T09:10:18;103236.57;;;14.02;62.61
65659;BME280;60181;53.258;6.932;2023-01-28T09:14:21;103235.42;;;14.02;62.42
65659;BME280;60181;53.258;6.932;2023-01-28T09:18:25;103233.39;;;14.04;62.19
65659;BME280;60181;53.258;6.932;2023-01-28T09:22:30;103232.63;;;14.06;62.28
65659;BME280;60181;53.258;6.932;2023-01-28T09:26:33;103233.24;;;14.08;62.12
65659;BME280;60181;53.258;6.932;2023-01-28T09:30:37;103233.65;;;14.11;61.90
65659;BME280;60181;53.258;6.932;2023-01-28T09:34:41;103232.81;;;14.16;61.76
65659;BME280;60181;53.258;6.932;2023-01-28T09:38:45;103231.82;;;14.20;61.59
65659;BME280;60181;53.258;6.932;2023-01-28T09:42:56;103232.28;;;14.26;61.42
65659;BME280;60181;53.258;6.932;2023-01-28T09:46:53;103234.23;;;14.31;61.56
65659;BME280;60181;53.258;6.932;2023-01-28T09:50:57;103235.19;;;14.34;61.45
65659;BME280;60181;53.258;6.932;2023-01-28T09:55:03;103236.02;;;14.35;62.01
65659;BME280;60181;53.258;6.932;2023-01-28T09:59:18;103237.51;;;14.32;62.34
65659;BME280;60181;53.258;6.932;2023-01-28T10:11:30;103234.19;;;14.18;62.68
65659;BME280;60181;53.258;6.932;2023-01-28T10:19:26;103231.43;;;14.11;62.92
65659;BME280;60181;53.258;6.932;2023-01-28T10:23:33;103227.55;;;14.08;62.91
65659;BME280;60181;53.258;6.932;2023-01-28T10:27:35;103220.14;;;14.05;62.90
65659;BME280;60181;53.258;6.932;2023-01-28T10:31:38;103208.42;;;14.04;62.64
65659;BME280;60181;53.258;6.932;2023-01-28T10:35:41;103195.43;;;14.07;62.34
65659;BME280;60181;53.258;6.932;2023-01-28T10:39:45;103185.60;;;14.10;62.27
65659;BME280;60181;53.258;6.932;2023-01-28T10:43:49;103176.40;;;14.10;62.53
65659;BME280;60181;53.258;6.932;2023-01-28T10:51:57;103159.30;;;14.09;62.66
65659;BME280;60181;53.258;6.932;2023-01-28T10:56:02;103154.50;;;14.09;62.65
65659;BME280;60181;53.258;6.932;2023-01-28T11:00:09;103149.51;;;14.08;62.75
65659;BME280;60181;53.258;6.932;2023-01-28T11:04:28;103149.38;;;14.07;62.80
65659;BME280;60181;53.258;6.932;2023-01-28T11:08:14;103148.58;;;14.06;62.86
65659;BME280;60181;53.258;6.932;2023-01-28T11:12:24;103148.43;;;14.04;62.94
65659;BME280;60181;53.258;6.932;2023-01-28T11:16:21;103147.80;;;14.03;63.01
65659;BME280;60181;53.258;6.932;2023-01-28T11:20:26;103147.11;;;14.01;63.10
65659;BME280;60181;53.258;6.932;2023-01-28T11:24:29;103149.44;;;14.00;63.07
65659;BME280;60181;53.258;6.932;2023-01-28T11:28:34;103150.63;;;14.03;62.51
65659;BME280;60181;53.258;6.932;2023-01-28T11:32:37;103152.48;;;14.05;62.77
65659;BME280;60181;53.258;6.932;2023-01-28T11:36:48;103154.93;;;14.04;63.02
65659;BME280;60181;53.258;6.932;2023-01-28T11:40:51;103155.09;;;14.03;63.13
65659;BME280;60181;53.258;6.932;2023-01-28T11:44:49;103155.69;;;14.01;63.10
65659;BME280;60181;53.258;6.932;2023-01-28T12:05:20;103137.68;;;13.99;63.11
65659;BME280;60181;53.258;6.932;2023-01-28T12:13:28;103130.87;;;13.98;63.19
65659;BME280;60181;53.258;6.932;2023-01-28T12:17:27;103126.61;;;13.97;63.32
65659;BME280;60181;53.258;6.932;2023-01-28T12:21:35;103120.58;;;13.95;63.30
65659;BME280;60181;53.258;6.932;2023-01-28T12:29:52;103110.61;;;13.95;63.15
65659;BME280;60181;53.258;6.932;2023-01-28T12:33:44;103103.66;;;13.96;63.11
65659;BME280;60181;53.258;6.932;2023-01-28T12:37:47;103097.25;;;13.98;62.82
65659;BME280;60181;53.258;6.932;2023-01-28T12:42:04;103091.94;;;14.14;61.06
65659;BME280;60181;53.258;6.932;2023-01-28T12:49:55;103085.51;;;14.21;61.86
65659;BME280;60181;53.258;6.932;2023-01-28T12:54:02;103083.31;;;14.16;61.94
65659;BME280;60181;53.258;6.932;2023-01-28T12:58:01;103080.70;;;14.12;62.34
65659;BME280;60181;53.258;6.932;2023-01-28T13:06:18;103077.92;;;14.04;62.75
65659;BME280;60181;53.258;6.932;2023-01-28T13:14:27;103081.30;;;13.97;62.77
65659;BME280;60181;53.258;6.932;2023-01-28T13:18:31;103082.54;;;13.94;63.08
65659;BME280;60181;53.258;6.932;2023-01-28T13:22:29;103084.48;;;13.92;62.92
65659;BME280;60181;53.258;6.932;2023-01-28T13:26:36;103082.93;;;13.90;62.98
65659;BME280;60181;53.258;6.932;2023-01-28T13:30:34;103078.06;;;13.88;62.93
65659;BME280;60181;53.258;6.932;2023-01-28T13:34:39;103075.56;;;13.87;63.08
65659;BME280;60181;53.258;6.932;2023-01-28T13:38:41;103074.85;;;13.86;63.02
65659;BME280;60181;53.258;6.932;2023-01-28T13:42:45;103073.71;;;13.86;62.90
65659;BME280;60181;53.258;6.932;2023-01-28T13:46:49;103071.77;;;13.86;62.90
65659;BME280;60181;53.258;6.932;2023-01-28T13:50:53;103071.50;;;13.85;63.06
65659;BME280;60181;53.258;6.932;2023-01-28T13:55:04;103070.00;;;13.90;62.38
65659;BME280;60181;53.258;6.932;2023-01-28T14:11:24;103062.99;;;13.95;63.06
65659;BME280;60181;53.258;6.932;2023-01-28T14:19:25;103067.29;;;13.93;63.24
65659;BME280;60181;53.258;6.932;2023-01-28T14:23:25;103072.09;;;13.92;63.21
65659;BME280;60181;53.258;6.932;2023-01-28T14:27:36;103079.28;;;13.91;63.28
65659;BME280;60181;53.258;6.932;2023-01-28T14:31:36;103084.51;;;13.90;63.28
65659;BME280;60181;53.258;6.932;2023-01-28T14:35:37;103088.00;;;13.89;63.31
65659;BME280;60181;53.258;6.932;2023-01-28T14:39:45;103088.11;;;13.88;63.29
65659;BME280;60181;53.258;6.932;2023-01-28T14:43:45;103087.43;;;13.87;63.32
65659;BME280;60181;53.258;6.932;2023-01-28T14:52:09;103088.54;;;13.87;63.31
65659;BME280;60181;53.258;6.932;2023-01-28T15:00:01;103082.92;;;13.86;63.30
65659;BME280;60181;53.258;6.932;2023-01-28T15:04:18;103082.97;;;13.86;63.34
65659;BME280;60181;53.258;6.932;2023-01-28T15:08:18;103083.95;;;13.86;63.32
65659;BME280;60181;53.258;6.932;2023-01-28T15:12:13;103086.24;;;13.90;62.53
65659;BME280;60181;53.258;6.932;2023-01-28T15:16:23;103086.56;;;13.97;62.74
65659;BME280;60181;53.258;6.932;2023-01-28T15:20:22;103088.85;;;13.98;63.10
65659;BME280;60181;53.258;6.932;2023-01-28T15:24:25;103087.45;;;13.98;63.42
65659;BME280;60181;53.258;6.932;2023-01-28T15:28:30;103087.18;;;13.96;63.55
65659;BME280;60181;53.258;6.932;2023-01-28T15:32:33;103088.34;;;13.94;63.61
65659;BME280;60181;53.258;6.932;2023-01-28T15:36:37;103084.13;;;13.92;63.68
65659;BME280;60181;53.258;6.932;2023-01-28T15:40:41;103078.50;;;13.90;63.68
65659;BME280;60181;53.258;6.932;2023-01-28T15:44:45;103075.46;;;13.89;63.70
65659;BME280;60181;53.258;6.932;2023-01-28T15:48:56;103071.04;;;13.88;63.68
65659;BME280;60181;53.258;6.932;2023-01-28T15:52:53;103065.01;;;13.86;63.70
65659;BME280;60181;53.258;6.932;2023-01-28T15:57:07;103062.40;;;13.85;63.70
65659;BME280;60181;53.258;6.932;2023-01-28T16:01:12;103065.59;;;13.84;63.70
65659;BME280;60181;53.258;6.932;2023-01-28T16:05:05;103064.55;;;13.83;63.72
65659;BME280;60181;53.258;6.932;2023-01-28T16:13:15;103056.75;;;13.81;63.76
65659;BME280;60181;53.258;6.932;2023-01-28T16:17:21;103054.25;;;13.80;63.78
65659;BME280;60181;53.258;6.932;2023-01-28T16:21:22;103051.39;;;13.79;63.76
65659;BME280;60181;53.258;6.932;2023-01-28T16:25:34;103051.28;;;13.78;63.77
65659;BME280;60181;53.258;6.932;2023-01-28T16:29:29;103053.25;;;13.78;63.74
65659;BME280;60181;53.258;6.932;2023-01-28T16:33:33;103054.81;;;13.78;63.73
65659;BME280;60181;53.258;6.932;2023-01-28T16:37:37;103055.18;;;13.77;63.70
65659;BME280;60181;53.258;6.932;2023-01-28T16:41:42;103056.90;;;13.77;63.70
65659;BME280;60181;53.258;6.932;2023-01-28T16:45:45;103061.34;;;13.77;63.69
65659;BME280;60181;53.258;6.932;2023-01-28T16:49:49;103065.22;;;13.77;63.67
65659;BME280;60181;53.258;6.932;2023-01-28T16:53:53;103067.86;;;13.77;63.69
65659;BME280;60181;53.258;6.932;2023-01-28T16:57:57;103068.10;;;13.77;63.76
65659;BME280;60181;53.258;6.932;2023-01-28T17:02:01;103070.17;;;13.77;63.70
65659;BME280;60181;53.258;6.932;2023-01-28T17:06:08;103070.83;;;13.77;63.69
65659;BME280;60181;53.258;6.932;2023-01-28T17:10:09;103072.31;;;13.77;63.72
65659;BME280;60181;53.258;6.932;2023-01-28T17:14:13;103075.11;;;13.77;63.74
65659;BME280;60181;53.258;6.932;2023-01-28T17:18:17;103079.14;;;13.77;63.71
65659;BME280;60181;53.258;6.932;2023-01-28T17:22:21;103083.92;;;13.77;63.74
65659;BME280;60181;53.258;6.932;2023-01-28T17:26:25;103087.62;;;13.77;63.72
65659;BME280;60181;53.258;6.932;2023-01-28T17:30:29;103093.30;;;13.77;63.73
65659;BME280;60181;53.258;6.932;2023-01-28T17:34:33;103100.71;;;13.77;63.73
65659;BME280;60181;53.258;6.932;2023-01-28T17:38:37;103104.74;;;13.76;63.78
65659;BME280;60181;53.258;6.932;2023-01-28T17:42:41;103107.26;;;13.76;63.81
65659;BME280;60181;53.258;6.932;2023-01-28T17:46:45;103109.80;;;13.76;63.81
65659;BME280;60181;53.258;6.932;2023-01-28T17:50:49;103112.94;;;13.76;63.82
65659;BME280;60181;53.258;6.932;2023-01-28T17:54:53;103115.15;;;13.75;63.80
65659;BME280;60181;53.258;6.932;2023-01-28T17:58:57;103117.37;;;13.75;63.81
65659;BME280;60181;53.258;6.932;2023-01-28T18:03:01;103120.00;;;13.75;63.83
65659;BME280;60181;53.258;6.932;2023-01-28T18:07:05;103121.03;;;13.75;63.79
65659;BME280;60181;53.258;6.932;2023-01-28T18:11:09;103120.87;;;13.75;63.77
65659;BME280;60181;53.258;6.932;2023-01-28T18:15:13;103118.90;;;13.75;63.80
65659;BME280;60181;53.258;6.932;2023-01-28T18:19:17;103116.87;;;13.75;63.78
65659;BME280;60181;53.258;6.932;2023-01-28T18:23:21;103116.83;;;13.81;64.01
65659;BME280;60181;53.258;6.932;2023-01-28T18:27:25;103116.15;;;14.03;62.34
65659;BME280;60181;53.258;6.932;2023-01-28T18:31:29;103116.86;;;14.10;63.42
65659;BME280;60181;53.258;6.932;2023-01-28T18:35:33;103118.66;;;14.09;63.88
65659;BME280;60181;53.258;6.932;2023-01-28T18:39:37;103120.52;;;14.07;64.10
65659;BME280;60181;53.258;6.932;2023-01-28T18:43:41;103120.69;;;14.03;64.22
65659;BME280;60181;53.258;6.932;2023-01-28T18:47:45;103121.89;;;14.01;64.28
65659;BME280;60181;53.258;6.932;2023-01-28T18:51:49;103122.39;;;13.98;64.27
65659;BME280;60181;53.258;6.932;2023-01-28T18:55:53;103122.03;;;13.96;64.29
65659;BME280;60181;53.258;6.932;2023-01-28T18:59:57;103120.73;;;13.94;64.28
65659;BME280;60181;53.258;6.932;2023-01-28T19:04:01;103118.14;;;13.92;64.28
65659;BME280;60181;53.258;6.932;2023-01-28T19:08:05;103114.70;;;13.91;64.27
65659;BME280;60181;53.258;6.932;2023-01-28T19:12:08;103112.46;;;13.89;64.26
65659;BME280;60181;53.258;6.932;2023-01-28T19:16:13;103112.83;;;13.88;64.25
65659;BME280;60181;53.258;6.932;2023-01-28T19:20:17;103112.46;;;13.87;64.25
65659;BME280;60181;53.258;6.932;2023-01-28T19:24:20;103110.28;;;13.86;64.23
65659;BME280;60181;53.258;6.932;2023-01-28T19:28:24;103106.26;;;13.85;64.22
65659;BME280;60181;53.258;6.932;2023-01-28T19:32:28;103102.93;;;13.85;64.22
65659;BME280;60181;53.258;6.932;2023-01-28T19:36:33;103101.27;;;13.84;64.22
65659;BME280;60181;53.258;6.932;2023-01-28T19:40:36;103100.73;;;13.84;64.19
65659;BME280;60181;53.258;6.932;2023-01-28T19:44:40;103100.32;;;13.83;64.16
65659;BME280;60181;53.258;6.932;2023-01-28T19:48:45;103095.19;;;13.83;64.16
65659;BME280;60181;53.258;6.932;2023-01-28T19:52:48;103088.61;;;13.83;64.14
65659;BME280;60181;53.258;6.932;2023-01-28T19:56:52;103081.74;;;13.83;64.15
65659;BME280;60181;53.258;6.932;2023-01-28T20:01:02;103076.75;;;13.83;64.14
65659;BME280;60181;53.258;6.932;2023-01-28T20:05:00;103073.61;;;13.83;64.08
65659;BME280;60181;53.258;6.932;2023-01-28T20:09:11;103072.71;;;13.83;64.09
65659;BME280;60181;53.258;6.932;2023-01-28T20:13:08;103071.90;;;13.84;64.10
65659;BME280;60181;53.258;6.932;2023-01-28T20:17:12;103072.34;;;13.84;64.12
65659;BME280;60181;53.258;6.932;2023-01-28T20:21:17;103072.02;;;13.84;64.26
65659;BME280;60181;53.258;6.932;2023-01-28T20:25:20;103070.00;;;13.87;63.89
65659;BME280;60181;53.258;6.932;2023-01-28T20:29:24;103068.48;;;13.87;64.02
65659;BME280;60181;53.258;6.932;2023-01-28T20:33:28;103067.04;;;13.87;64.10
65659;BME280;60181;53.258;6.932;2023-01-28T20:37:32;103066.96;;;13.87;64.12
65659;BME280;60181;53.258;6.932;2023-01-28T20:41:36;103067.11;;;13.86;64.11
65659;BME280;60181;53.258;6.932;2023-01-28T20:45:40;103066.56;;;13.86;64.12
65659;BME280;60181;53.258;6.932;2023-01-28T20:49:44;103066.56;;;13.85;64.14
65659;BME280;60181;53.258;6.932;2023-01-28T20:53:49;103067.43;;;13.85;64.14
65659;BME280;60181;53.258;6.932;2023-01-28T20:57:52;103067.75;;;13.85;64.12
65659;BME280;60181;53.258;6.932;2023-01-28T21:01:56;103069.14;;;13.84;64.12
65659;BME280;60181;53.258;6.932;2023-01-28T21:06:00;103070.43;;;13.86;64.23
65659;BME280;60181;53.258;6.932;2023-01-28T21:10:05;103070.04;;;14.03;62.34
65659;BME280;60181;53.258;6.932;2023-01-28T21:14:08;103068.26;;;14.22;61.88
65659;BME280;60181;53.258;6.932;2023-01-28T21:18:12;103067.70;;;14.31;62.94
65659;BME280;60181;53.258;6.932;2023-01-28T21:22:16;103068.26;;;14.30;63.42
65659;BME280;60181;53.258;6.932;2023-01-28T21:26:20;103067.31;;;14.26;63.56
65659;BME280;60181;53.258;6.932;2023-01-28T21:30:24;103065.53;;;14.21;63.63
65659;BME280;60181;53.258;6.932;2023-01-28T21:34:28;103065.98;;;14.17;63.63
65659;BME280;60181;53.258;6.932;2023-01-28T21:38:32;103068.20;;;14.14;63.57
65659;BME280;60181;53.258;6.932;2023-01-28T21:42:36;103068.30;;;14.11;63.51
65659;BME280;60181;53.258;6.932;2023-01-28T21:46:40;103067.43;;;14.08;63.52
65659;BME280;60181;53.258;6.932;2023-01-28T21:50:44;103065.27;;;14.06;63.46
65659;BME280;60181;53.258;6.932;2023-01-28T21:54:48;103060.71;;;14.04;63.44
65659;BME280;60181;53.258;6.932;2023-01-28T21:58:53;103058.01;;;14.02;63.39
65659;BME280;60181;53.258;6.932;2023-01-28T22:02:56;103054.36;;;14.01;63.40
65659;BME280;60181;53.258;6.932;2023-01-28T22:07:01;103048.99;;;13.98;63.53
65659;BME280;60181;53.258;6.932;2023-01-28T22:11:05;103042.43;;;13.99;63.65
65659;BME280;60181;53.258;6.932;2023-01-28T22:15:09;103034.72;;;14.05;63.18
65659;BME280;60181;53.258;6.932;2023-01-28T22:19:12;103027.67;;;14.12;62.93
65659;BME280;60181;53.258;6.932;2023-01-28T22:23:16;103019.42;;;14.19;62.81
65659;BME280;60181;53.258;6.932;2023-01-28T22:27:20;103012.77;;;14.25;62.66
65659;BME280;60181;53.258;6.932;2023-01-28T22:31:24;103006.14;;;14.29;62.65
65659;BME280;60181;53.258;6.932;2023-01-28T22:35:28;102999.45;;;14.32;62.67
65659;BME280;60181;53.258;6.932;2023-01-28T22:39:32;102994.63;;;14.35;62.62
65659;BME280;60181;53.258;6.932;2023-01-28T22:43:36;102990.77;;;14.37;62.62